createdAt,value
2022-12-18T00:02:07.774Z,99293.78
2022-12-18T00:06:26.726Z,99292.44
2022-12-18T00:10:44.701Z,99295.69
2022-12-18T00:15:01.605Z,99310.13
2022-12-18T00:19:18.831Z,99316.31
2022-12-18T00:23:37.636Z,99311.78
2022-12-18T00:27:55.007Z,99300.97
2022-12-18T00:32:11.942Z,99313.13
2022-12-18T00:36:34.764Z,99315.38
2022-12-18T00:40:51.778Z,99322.44
2022-12-18T00:45:12.853Z,99328.28
2022-12-18T00:49:30.343Z,99332.63
2022-12-18T00:53:47.400Z,99332.53
2022-12-18T00:58:04.423Z,99355.44
2022-12-18T01:02:21.588Z,99369.28
2022-12-18T01:06:38.725Z,99363.38
2022-12-18T01:10:55.711Z,99369.94
2022-12-18T01:15:16.176Z,99366.66
2022-12-18T01:19:33.185Z,99364.06
2022-12-18T01:23:55.833Z,99369.78
2022-12-18T01:28:12.651Z,99381.78
2022-12-18T01:32:32.475Z,99384.41
2022-12-18T01:36:49.625Z,99393.50
2022-12-18T01:41:06.694Z,99399.16
2022-12-18T01:45:32.881Z,99396.19
2022-12-18T01:49:50.176Z,99393.19
2022-12-18T01:54:07.039Z,99382.78
2022-12-18T01:59:03.170Z,99402.19
2022-12-18T02:03:20.088Z,99401.66
2022-12-18T02:08:05.253Z,99406.41
2022-12-18T02:12:30.095Z,99411.97
2022-12-18T02:17:19.341Z,99419.69
2022-12-18T02:21:53.221Z,99445.31
2022-12-18T02:26:35.913Z,99442.47
2022-12-18T02:30:57.465Z,99434.75
2022-12-18T02:35:21.525Z,99432.59
2022-12-18T02:39:41.363Z,99441.78
2022-12-18T02:44:13.540Z,99446.03
2022-12-18T02:48:36.184Z,99450.91
2022-12-18T02:53:37.536Z,99451.38
2022-12-18T02:58:26.086Z,99464.94
2022-12-18T03:03:24.335Z,99474.31
2022-12-18T03:07:56.549Z,99475.94
2022-12-18T03:12:28.993Z,99485.69
2022-12-18T03:16:48.063Z,99477.22
2022-12-18T03:21:08.694Z,99490.69
2022-12-18T03:25:27.933Z,99493.13
2022-12-18T03:30:08.773Z,99490.25
2022-12-18T03:34:33.387Z,99508.78
2022-12-18T03:38:50.488Z,99521.53
2022-12-18T03:43:26.614Z,99511.84
2022-12-18T03:48:20.039Z,99509.59
2022-12-18T03:52:46.578Z,99516.75
2022-12-18T03:57:16.436Z,99522.75
2022-12-18T04:01:38.453Z,99535.16
2022-12-18T04:05:57.765Z,99531.78
2022-12-18T04:10:16.882Z,99537.72
2022-12-18T04:14:36.880Z,99548.84
2022-12-18T04:18:54.428Z,99539.78
2022-12-18T04:23:14.987Z,99547.56
2022-12-18T04:27:31.999Z,99544.41
2022-12-18T04:31:49.066Z,99556.16
2022-12-18T04:36:06.537Z,99553.22
2022-12-18T04:40:23.644Z,99560.41
2022-12-18T04:44:40.447Z,99573.53
2022-12-18T04:48:57.589Z,99584.09
2022-12-18T04:53:14.424Z,99580.81
2022-12-18T04:57:31.466Z,99585.38
2022-12-18T05:01:48.469Z,99593.69
2022-12-18T05:06:07.147Z,99603.63
2022-12-18T05:10:24.161Z,99609.84
2022-12-18T05:14:41.258Z,99609.50
2022-12-18T05:18:58.221Z,99616.75
2022-12-18T05:23:15.262Z,99628.38
2022-12-18T05:27:32.093Z,99618.88
2022-12-18T05:31:49.233Z,99610.75
2022-12-18T05:36:09.052Z,99616.97
2022-12-18T05:40:26.145Z,99619.88
2022-12-18T05:44:44.086Z,99624.16
2022-12-18T05:49:02.495Z,99626.34
2022-12-18T05:53:21.589Z,99633.88
2022-12-18T05:57:38.635Z,99648.59
2022-12-18T06:01:55.567Z,99646.72
2022-12-18T06:06:20.631Z,99644.00
2022-12-18T06:10:38.549Z,99645.59
2022-12-18T06:14:55.461Z,99653.41
2022-12-18T06:19:17.533Z,99666.38
2022-12-18T06:23:34.691Z,99658.56
2022-12-18T06:27:51.764Z,99680.63
2022-12-18T06:32:08.902Z,99695.03
2022-12-18T06:36:26.030Z,99689.31
2022-12-18T06:40:42.921Z,99690.06
2022-12-18T06:45:00.089Z,99698.03
2022-12-18T06:49:17.176Z,99693.69
2022-12-18T06:53:34.661Z,99701.22
2022-12-18T06:57:51.580Z,99717.28
2022-12-18T07:02:14.031Z,99726.94
2022-12-18T07:06:30.975Z,99749.38
2022-12-18T07:10:55.770Z,99733.00
2022-12-18T07:15:13.336Z,99735.84
2022-12-18T07:19:30.940Z,99743.47
2022-12-18T07:23:49.415Z,99763.25
2022-12-18T07:28:07.774Z,99769.50
2022-12-18T07:32:25.676Z,99768.00
2022-12-18T07:36:42.942Z,99793.22
2022-12-18T07:41:04.436Z,99806.88
2022-12-18T07:45:23.838Z,99792.72
2022-12-18T07:49:40.782Z,99798.00
2022-12-18T07:53:58.434Z,99790.75
2022-12-18T07:58:15.349Z,99799.19
2022-12-18T08:02:33.272Z,99796.72
2022-12-18T08:06:50.121Z,99791.72
2022-12-18T08:11:07.401Z,99805.97
2022-12-18T08:15:24.709Z,99815.53
2022-12-18T08:19:41.972Z,99815.22
2022-12-18T08:24:01.846Z,99823.44
2022-12-18T08:28:19.098Z,99814.50
2022-12-18T08:32:35.980Z,99824.78
2022-12-18T08:36:53.064Z,99825.41
2022-12-18T08:41:13.174Z,99822.09
2022-12-18T08:45:30.288Z,99818.28
2022-12-18T08:49:47.185Z,99833.06
2022-12-18T08:54:06.465Z,99862.69
2022-12-18T08:58:24.062Z,99840.38
2022-12-18T09:02:40.985Z,99842.00
2022-12-18T09:06:58.182Z,99856.13
2022-12-18T09:11:24.327Z,99851.41
2022-12-18T09:15:47.198Z,99873.94
2022-12-18T09:20:04.558Z,99874.09
2022-12-18T09:24:21.705Z,99866.13
2022-12-18T09:28:38.997Z,99880.75
2022-12-18T09:32:56.930Z,99908.38
2022-12-18T09:37:13.817Z,99901.00
2022-12-18T09:41:44.466Z,99892.38
2022-12-18T09:46:10.271Z,99887.75
2022-12-18T09:50:40.474Z,99881.91
2022-12-18T09:55:22.426Z,99896.19
2022-12-18T09:59:44.451Z,99887.41
2022-12-18T10:04:03.248Z,99879.13
2022-12-18T10:08:34.918Z,99884.75
2022-12-18T10:13:11.387Z,99876.44
2022-12-18T10:18:02.577Z,99876.72
2022-12-18T10:23:10.651Z,99879.66
2022-12-18T10:27:29.645Z,99885.72
2022-12-18T10:31:48.490Z,99879.78
2022-12-18T10:36:07.336Z,99868.00
2022-12-18T10:40:25.393Z,99864.16
2022-12-18T10:44:44.245Z,99877.69
2022-12-18T10:49:01.147Z,99876.06
2022-12-18T10:53:29.830Z,99861.16
2022-12-18T10:57:48.609Z,99844.47
2022-12-18T11:02:25.738Z,99846.25
2022-12-18T11:07:10.645Z,99840.94
2022-12-18T11:11:28.491Z,99843.66
2022-12-18T11:15:47.241Z,99844.47
2022-12-18T11:20:15.747Z,99846.72
2022-12-18T11:24:36.703Z,99855.09
2022-12-18T11:29:11.409Z,99862.78
2022-12-18T11:33:28.615Z,99847.47
2022-12-18T11:37:58.799Z,99864.09
2022-12-18T11:42:42.754Z,99875.53
2022-12-18T11:47:32.549Z,99880.41
2022-12-18T11:52:14.821Z,99871.38
2022-12-18T11:56:49.227Z,99888.56
2022-12-18T12:01:44.849Z,99883.69
2022-12-18T12:06:11.741Z,99899.47
2022-12-18T12:11:07.980Z,99909.69
2022-12-18T12:16:14.007Z,99929.13
2022-12-18T12:20:53.823Z,99973.84
2022-12-18T12:25:33.082Z,99969.25
2022-12-18T12:30:10.412Z,99973.88
2022-12-18T12:34:57.657Z,99977.41
2022-12-18T12:39:23.748Z,99955.84
2022-12-18T12:43:50.790Z,99977.13
2022-12-18T12:48:23.679Z,99983.91
2022-12-18T12:52:48.640Z,99985.78
2022-12-18T12:57:28.467Z,99959.09
2022-12-18T13:02:21.146Z,99946.41
2022-12-18T13:06:59.803Z,99942.81
2022-12-18T13:12:10.297Z,99954.72
2022-12-18T13:16:28.666Z,99941.59
2022-12-18T13:20:55.202Z,99938.88
2022-12-18T13:25:36.642Z,99944.81
2022-12-18T13:29:54.338Z,99954.19
2022-12-18T13:34:28.420Z,99947.75
2022-12-18T13:38:46.441Z,99949.16
2022-12-18T13:43:21.146Z,99949.97
2022-12-18T13:47:39.320Z,99950.09
2022-12-18T13:51:57.260Z,99941.69
2022-12-18T13:56:22.207Z,99941.13
2022-12-18T14:00:43.910Z,99933.22
2022-12-18T14:05:00.961Z,99934.25
2022-12-18T14:09:27.005Z,99945.91
2022-12-18T14:13:44.797Z,99944.72
2022-12-18T14:18:45.136Z,99940.66
2022-12-18T14:23:02.903Z,99933.72
2022-12-18T14:27:26.114Z,99916.28
2022-12-18T14:31:42.960Z,99914.09
2022-12-18T14:36:06.226Z,99915.50
2022-12-18T14:40:23.105Z,99916.63
2022-12-18T14:45:05.156Z,99920.41
2022-12-18T14:49:35.952Z,99910.06
2022-12-18T14:54:04.373Z,99924.81
2022-12-18T14:58:21.480Z,99932.75
2022-12-18T15:02:38.681Z,99918.13
2022-12-18T15:07:25.145Z,99919.56
2022-12-18T15:11:41.929Z,99941.63
2022-12-18T15:16:04.223Z,99945.66
2022-12-18T15:20:21.494Z,99938.56
2022-12-18T15:24:38.503Z,99954.63
2022-12-18T15:28:58.731Z,99966.47
2022-12-18T15:33:27.077Z,99957.19
2022-12-18T15:37:44.636Z,99962.09
2022-12-18T15:42:21.308Z,99960.66
2022-12-18T15:46:38.433Z,99960.50
2022-12-18T15:50:59.648Z,99959.66
2022-12-18T15:55:39.613Z,99966.00
2022-12-18T15:59:59.574Z,99970.06
2022-12-18T16:04:21.656Z,99989.41
2022-12-18T16:08:38.837Z,99999.44
2022-12-18T16:12:57.056Z,99993.50
2022-12-18T16:17:15.821Z,99974.59
2022-12-18T16:21:34.210Z,99994.22
2022-12-18T16:25:51.955Z,99991.00
2022-12-18T16:30:18.166Z,99988.72
2022-12-18T16:34:36.281Z,99994.22
2022-12-18T16:38:53.372Z,99998.00
2022-12-18T16:43:10.200Z,100019.38
2022-12-18T16:47:27.256Z,100019.81
2022-12-18T16:51:46.519Z,100014.47
2022-12-18T16:56:03.566Z,100013.56
2022-12-18T17:00:21.912Z,99997.16
2022-12-18T17:04:38.786Z,100003.78
2022-12-18T17:09:03.882Z,99991.81
2022-12-18T17:13:25.525Z,99992.09
2022-12-18T17:17:42.996Z,99983.66
2022-12-18T17:22:00.113Z,99981.88
2022-12-18T17:26:17.383Z,99976.72
2022-12-18T17:30:34.233Z,99963.78
2022-12-18T17:34:51.353Z,99959.50
2022-12-18T17:39:08.582Z,99957.50
2022-12-18T17:43:25.608Z,99956.72
2022-12-18T17:47:42.414Z,99966.09
2022-12-18T17:51:59.500Z,99973.59
2022-12-18T17:56:20.094Z,99970.03
2022-12-18T18:00:39.553Z,99976.22
2022-12-18T18:04:56.382Z,99995.50
2022-12-18T18:09:16.451Z,100004.44
2022-12-18T18:14:30.968Z,100012.88
2022-12-18T18:18:47.838Z,100001.19
2022-12-18T18:23:05.006Z,100001.19
2022-12-18T18:27:22.018Z,99988.34
2022-12-18T18:31:41.082Z,99991.53
2022-12-18T18:35:58.319Z,99990.78
2022-12-18T18:40:15.488Z,99988.19
2022-12-18T18:44:32.570Z,99989.91
2022-12-18T18:48:49.869Z,100000.41
2022-12-18T18:53:06.735Z,99997.97
2022-12-18T18:57:28.718Z,100013.75
2022-12-18T19:01:48.451Z,100008.44
2022-12-18T19:06:07.696Z,100022.69
2022-12-18T19:10:24.734Z,100013.41
2022-12-18T19:14:42.208Z,100016.56
2022-12-18T19:19:02.319Z,100026.75
2022-12-18T19:23:20.199Z,100022.28
2022-12-18T19:27:40.180Z,100037.66
2022-12-18T19:31:57.309Z,100043.88
2022-12-18T19:36:25.390Z,100046.03
2022-12-18T19:40:44.463Z,100051.72
2022-12-18T19:45:01.339Z,100049.88
2022-12-18T19:49:18.614Z,100035.44
2022-12-18T19:53:36.291Z,100029.03
2022-12-18T19:57:53.382Z,100022.78
2022-12-18T20:02:14.025Z,100029.06
2022-12-18T20:06:35.638Z,100030.47
2022-12-18T20:10:52.490Z,100025.47
2022-12-18T20:15:10.612Z,100045.75
2022-12-18T20:19:27.618Z,100041.13
2022-12-18T20:23:45.076Z,100022.09
2022-12-18T20:28:02.256Z,100015.38
2022-12-18T20:32:19.404Z,100006.50
2022-12-18T20:36:37.584Z,100001.50
2022-12-18T20:40:55.941Z,99991.13
2022-12-18T20:45:13.197Z,99993.59
2022-12-18T20:49:30.712Z,100000.22
2022-12-18T20:53:48.555Z,99997.47
2022-12-18T20:58:05.626Z,99991.31
2022-12-18T21:02:23.106Z,99978.47
2022-12-18T21:06:40.068Z,99984.16
2022-12-18T21:10:57.200Z,99971.56
2022-12-18T21:15:14.138Z,99953.03
2022-12-18T21:19:31.159Z,99945.53
2022-12-18T21:23:48.301Z,99953.31
2022-12-18T21:28:05.594Z,99938.75
2022-12-18T21:32:23.607Z,99941.03
2022-12-18T21:36:41.797Z,99943.13
2022-12-18T21:40:59.189Z,99937.44
2022-12-18T21:45:16.152Z,99956.25
2022-12-18T21:49:33.845Z,99968.19
2022-12-18T21:53:50.671Z,99962.13
2022-12-18T21:58:08.493Z,99949.63
2022-12-18T22:02:26.824Z,99941.72
2022-12-18T22:06:44.496Z,99952.88
2022-12-18T22:11:01.581Z,99957.25
2022-12-18T22:15:21.709Z,99946.38
2022-12-18T22:19:43.107Z,99953.28
2022-12-18T22:24:06.868Z,99959.69
2022-12-18T22:28:42.988Z,99958.81
2022-12-18T22:33:00.058Z,99950.59
2022-12-18T22:37:16.938Z,99949.47
2022-12-18T22:41:34.049Z,99947.19
2022-12-18T22:45:50.910Z,99949.47
2022-12-18T22:50:08.776Z,99944.59
2022-12-18T22:54:25.642Z,99958.47
2022-12-18T22:58:43.037Z,99969.69
2022-12-18T23:03:01.143Z,99947.28
2022-12-18T23:07:18.670Z,99941.53
2022-12-18T23:11:35.523Z,99945.41
2022-12-18T23:15:52.615Z,99943.47
2022-12-18T23:20:10.189Z,99941.69
2022-12-18T23:24:27.310Z,99950.91
2022-12-18T23:28:46.165Z,99964.81
2022-12-18T23:33:03.234Z,99958.13
2022-12-18T23:37:49.877Z,99958.31
2022-12-18T23:41:59.227Z,99953.19
2022-12-18T23:46:36.075Z,99937.81
2022-12-18T23:50:53.146Z,99946.41
2022-12-18T23:55:10.115Z,99947.84
2022-12-18T23:59:27.125Z,99951.59
